sensor_id;sensor_type;location;lat;lon;timestamp;P1;durP1;ratioP1;P2;durP2;ratioP2
50161;SDS011;36061;48.116;11.612;2023-06-22T00:00:11;3.60;;;2.57;;
50161;SDS011;36061;48.116;11.612;2023-06-22T00:02:38;7.67;;;3.23;;
50161;SDS011;36061;48.116;11.612;2023-06-22T00:05:06;6.97;;;3.40;;
50161;SDS011;36061;48.116;11.612;2023-06-22T00:07:33;6.83;;;3.03;;
50161;SDS011;36061;48.116;11.612;2023-06-22T00:10:02;4.20;;;2.50;;
50161;SDS011;36061;48.116;11.612;2023-06-22T00:12:29;7.93;;;3.03;;
50161;SDS011;36061;48.116;11.612;2023-06-22T00:14:57;8.37;;;3.03;;
50161;SDS011;36061;48.116;11.612;2023-06-22T00:17:24;4.60;;;2.80;;
50161;SDS011;36061;48.116;11.612;2023-06-22T00:19:51;7.07;;;3.33;;
50161;SDS011;36061;48.116;11.612;2023-06-22T00:22:20;5.27;;;2.77;;
50161;SDS011;36061;48.116;11.612;2023-06-22T00:24:53;3.77;;;2.77;;
50161;SDS011;36061;48.116;11.612;2023-06-22T00:27:22;4.60;;;3.00;;
50161;SDS011;36061;48.116;11.612;2023-06-22T00:29:49;8.13;;;3.03;;
50161;SDS011;36061;48.116;11.612;2023-06-22T00:32:17;7.33;;;3.33;;
50161;SDS011;36061;48.116;11.612;2023-06-22T00:34:46;5.67;;;2.97;;
50161;SDS011;36061;48.116;11.612;2023-06-22T00:37:13;5.60;;;3.03;;
50161;SDS011;36061;48.116;11.612;2023-06-22T00:39:41;3.33;;;2.90;;
50161;SDS011;36061;48.116;11.612;2023-06-22T00:42:10;9.03;;;3.33;;
50161;SDS011;36061;48.116;11.612;2023-06-22T00:44:39;7.20;;;3.57;;
50161;SDS011;36061;48.116;11.612;2023-06-22T00:47:06;5.97;;;3.10;;
50161;SDS011;36061;48.116;11.612;2023-06-22T00:49:33;7.50;;;3.50;;
50161;SDS011;36061;48.116;11.612;2023-06-22T00:52:01;4.93;;;2.80;;
50161;SDS011;36061;48.116;11.612;2023-06-22T00:54:29;4.93;;;2.90;;
50161;SDS011;36061;48.116;11.612;2023-06-22T00:56:56;6.63;;;3.63;;
50161;SDS011;36061;48.116;11.612;2023-06-22T00:59:24;6.10;;;3.60;;
50161;SDS011;36061;48.116;11.612;2023-06-22T01:01:54;4.63;;;3.00;;
50161;SDS011;36061;48.116;11.612;2023-06-22T01:04:24;6.37;;;3.27;;
50161;SDS011;36061;48.116;11.612;2023-06-22T01:07:02;5.10;;;3.07;;
50161;SDS011;36061;48.116;11.612;2023-06-22T01:09:40;5.83;;;3.10;;
50161;SDS011;36061;48.116;11.612;2023-06-22T01:12:12;7.27;;;3.30;;
50161;SDS011;36061;48.116;11.612;2023-06-22T01:14:41;7.70;;;3.17;;
50161;SDS011;36061;48.116;11.612;2023-06-22T01:17:15;4.70;;;2.90;;
50161;SDS011;36061;48.116;11.612;2023-06-22T01:19:44;4.87;;;2.97;;
50161;SDS011;36061;48.116;11.612;2023-06-22T01:22:15;6.20;;;3.00;;
50161;SDS011;36061;48.116;11.612;2023-06-22T01:24:46;7.60;;;3.90;;
50161;SDS011;36061;48.116;11.612;2023-06-22T01:27:37;4.43;;;3.13;;
50161;SDS011;36061;48.116;11.612;2023-06-22T01:30:15;4.27;;;2.67;;
50161;SDS011;36061;48.116;11.612;2023-06-22T01:32:45;5.13;;;3.27;;
50161;SDS011;36061;48.116;11.612;2023-06-22T01:35:13;4.53;;;3.00;;
50161;SDS011;36061;48.116;11.612;2023-06-22T01:37:42;6.77;;;3.00;;
50161;SDS011;36061;48.116;11.612;2023-06-22T01:40:10;7.03;;;3.27;;
50161;SDS011;36061;48.116;11.612;2023-06-22T01:42:38;3.93;;;2.80;;
50161;SDS011;36061;48.116;11.612;2023-06-22T01:45:07;11.63;;;3.50;;
50161;SDS011;36061;48.116;11.612;2023-06-22T01:47:38;6.87;;;3.37;;
50161;SDS011;36061;48.116;11.612;2023-06-22T01:50:06;7.03;;;2.90;;
50161;SDS011;36061;48.116;11.612;2023-06-22T01:52:34;5.23;;;2.90;;
50161;SDS011;36061;48.116;11.612;2023-06-22T01:55:03;4.53;;;3.00;;
50161;SDS011;36061;48.116;11.612;2023-06-22T01:57:33;4.50;;;2.83;;
50161;SDS011;36061;48.116;11.612;2023-06-22T02:00:01;8.07;;;3.67;;
50161;SDS011;36061;48.116;11.612;2023-06-22T02:02:43;7.83;;;3.20;;
50161;SDS011;36061;48.116;11.612;2023-06-22T02:05:16;6.60;;;3.27;;
50161;SDS011;36061;48.116;11.612;2023-06-22T02:07:46;9.10;;;3.77;;
50161;SDS011;36061;48.116;11.612;2023-06-22T02:10:19;7.20;;;3.20;;
50161;SDS011;36061;48.116;11.612;2023-06-22T02:12:48;6.57;;;3.40;;
50161;SDS011;36061;48.116;11.612;2023-06-22T02:15:17;6.97;;;3.80;;
50161;SDS011;36061;48.116;11.612;2023-06-22T02:17:47;4.80;;;3.03;;
50161;SDS011;36061;48.116;11.612;2023-06-22T02:20:15;5.60;;;3.07;;
50161;SDS011;36061;48.116;11.612;2023-06-22T02:22:42;8.83;;;4.07;;
50161;SDS011;36061;48.116;11.612;2023-06-22T02:25:10;5.83;;;3.53;;
50161;SDS011;36061;48.116;11.612;2023-06-22T02:27:37;4.17;;;3.13;;
50161;SDS011;36061;48.116;11.612;2023-06-22T02:30:06;6.33;;;4.03;;
50161;SDS011;36061;48.116;11.612;2023-06-22T02:32:34;8.93;;;4.30;;
50161;SDS011;36061;48.116;11.612;2023-06-22T02:35:03;4.77;;;3.10;;
50161;SDS011;36061;48.116;11.612;2023-06-22T02:37:31;6.80;;;3.70;;
50161;SDS011;36061;48.116;11.612;2023-06-22T02:39:59;7.67;;;3.90;;
50161;SDS011;36061;48.116;11.612;2023-06-22T02:42:26;6.77;;;3.90;;
50161;SDS011;36061;48.116;11.612;2023-06-22T02:44:53;7.03;;;3.40;;
50161;SDS011;36061;48.116;11.612;2023-06-22T02:47:21;3.20;;;2.70;;
50161;SDS011;36061;48.116;11.612;2023-06-22T02:49:49;4.50;;;3.17;;
50161;SDS011;36061;48.116;11.612;2023-06-22T02:52:18;5.97;;;3.30;;
50161;SDS011;36061;48.116;11.612;2023-06-22T02:54:45;7.30;;;3.20;;
50161;SDS011;36061;48.116;11.612;2023-06-22T02:57:13;4.23;;;3.27;;
50161;SDS011;36061;48.116;11.612;2023-06-22T02:59:42;5.27;;;3.00;;
50161;SDS011;36061;48.116;11.612;2023-06-22T03:02:11;6.40;;;2.90;;
50161;SDS011;36061;48.116;11.612;2023-06-22T03:04:39;6.17;;;3.23;;
50161;SDS011;36061;48.116;11.612;2023-06-22T03:07:06;7.20;;;3.20;;
50161;SDS011;36061;48.116;11.612;2023-06-22T03:09:35;8.33;;;3.43;;
50161;SDS011;36061;48.116;11.612;2023-06-22T03:12:02;6.40;;;3.20;;
50161;SDS011;36061;48.116;11.612;2023-06-22T03:14:38;5.07;;;3.20;;
50161;SDS011;36061;48.116;11.612;2023-06-22T03:17:05;6.00;;;3.60;;
50161;SDS011;36061;48.116;11.612;2023-06-22T03:19:33;8.20;;;3.67;;
50161;SDS011;36061;48.116;11.612;2023-06-22T03:22:00;6.70;;;3.73;;
50161;SDS011;36061;48.116;11.612;2023-06-22T03:24:27;5.43;;;3.93;;
50161;SDS011;36061;48.116;11.612;2023-06-22T03:26:57;7.47;;;4.07;;
50161;SDS011;36061;48.116;11.612;2023-06-22T03:29:24;7.13;;;4.10;;
50161;SDS011;36061;48.116;11.612;2023-06-22T03:31:51;9.33;;;4.17;;
50161;SDS011;36061;48.116;11.612;2023-06-22T03:34:19;7.10;;;3.80;;
50161;SDS011;36061;48.116;11.612;2023-06-22T03:36:46;6.00;;;3.43;;
50161;SDS011;36061;48.116;11.612;2023-06-22T03:39:13;6.57;;;4.00;;
50161;SDS011;36061;48.116;11.612;2023-06-22T03:41:40;5.13;;;3.87;;
50161;SDS011;36061;48.116;11.612;2023-06-22T03:44:09;6.43;;;4.23;;
50161;SDS011;36061;48.116;11.612;2023-06-22T03:46:37;7.57;;;4.00;;
50161;SDS011;36061;48.116;11.612;2023-06-22T03:49:05;5.60;;;3.50;;
50161;SDS011;36061;48.116;11.612;2023-06-22T03:51:32;7.60;;;4.00;;
50161;SDS011;36061;48.116;11.612;2023-06-22T03:53:59;6.73;;;4.27;;
50161;SDS011;36061;48.116;11.612;2023-06-22T03:56:26;6.87;;;4.30;;
50161;SDS011;36061;48.116;11.612;2023-06-22T03:58:54;8.40;;;4.03;;
50161;SDS011;36061;48.116;11.612;2023-06-22T04:01:23;8.50;;;3.87;;
50161;SDS011;36061;48.116;11.612;2023-06-22T04:03:50;9.50;;;4.97;;
50161;SDS011;36061;48.116;11.612;2023-06-22T04:06:17;9.50;;;3.80;;
50161;SDS011;36061;48.116;11.612;2023-06-22T04:08:45;6.73;;;3.67;;
50161;SDS011;36061;48.116;11.612;2023-06-22T04:11:16;5.87;;;3.87;;
50161;SDS011;36061;48.116;11.612;2023-06-22T04:13:43;8.77;;;4.77;;
50161;SDS011;36061;48.116;11.612;2023-06-22T04:16:10;6.60;;;4.13;;
50161;SDS011;36061;48.116;11.612;2023-06-22T04:18:39;7.70;;;4.10;;
50161;SDS011;36061;48.116;11.612;2023-06-22T04:21:07;5.70;;;4.20;;
50161;SDS011;36061;48.116;11.612;2023-06-22T04:23:34;8.07;;;4.53;;
50161;SDS011;36061;48.116;11.612;2023-06-22T04:26:01;8.23;;;4.07;;
50161;SDS011;36061;48.116;11.612;2023-06-22T04:28:28;8.57;;;4.10;;
50161;SDS011;36061;48.116;11.612;2023-06-22T04:31:00;6.50;;;4.60;;
50161;SDS011;36061;48.116;11.612;2023-06-22T04:33:27;7.93;;;4.67;;
50161;SDS011;36061;48.116;11.612;2023-06-22T04:35:57;8.00;;;4.60;;
50161;SDS011;36061;48.116;11.612;2023-06-22T04:38:26;9.97;;;5.00;;
50161;SDS011;36061;48.116;11.612;2023-06-22T04:40:53;6.17;;;4.37;;
50161;SDS011;36061;48.116;11.612;2023-06-22T04:43:21;9.20;;;5.03;;
50161;SDS011;36061;48.116;11.612;2023-06-22T04:45:48;12.80;;;5.57;;
50161;SDS011;36061;48.116;11.612;2023-06-22T04:48:17;12.00;;;4.83;;
50161;SDS011;36061;48.116;11.612;2023-06-22T04:50:45;10.57;;;4.90;;
50161;SDS011;36061;48.116;11.612;2023-06-22T04:53:13;6.30;;;3.97;;
50161;SDS011;36061;48.116;11.612;2023-06-22T04:55:41;11.93;;;5.03;;
50161;SDS011;36061;48.116;11.612;2023-06-22T04:58:11;8.23;;;5.57;;
50161;SDS011;36061;48.116;11.612;2023-06-22T05:00:38;8.13;;;5.00;;
50161;SDS011;36061;48.116;11.612;2023-06-22T05:03:05;9.57;;;4.90;;
50161;SDS011;36061;48.116;11.612;2023-06-22T05:05:36;10.97;;;5.23;;
50161;SDS011;36061;48.116;11.612;2023-06-22T05:08:03;7.27;;;4.97;;
50161;SDS011;36061;48.116;11.612;2023-06-22T05:10:33;8.30;;;4.80;;
50161;SDS011;36061;48.116;11.612;2023-06-22T05:13:00;9.70;;;5.50;;
50161;SDS011;36061;48.116;11.612;2023-06-22T05:15:27;7.87;;;4.80;;
50161;SDS011;36061;48.116;11.612;2023-06-22T05:17:58;7.50;;;4.83;;
50161;SDS011;36061;48.116;11.612;2023-06-22T05:20:30;9.50;;;5.07;;
50161;SDS011;36061;48.116;11.612;2023-06-22T05:22:58;11.03;;;5.47;;
50161;SDS011;36061;48.116;11.612;2023-06-22T05:25:26;11.23;;;5.27;;
50161;SDS011;36061;48.116;11.612;2023-06-22T05:27:56;12.37;;;5.33;;
50161;SDS011;36061;48.116;11.612;2023-06-22T05:30:23;9.37;;;4.93;;
50161;SDS011;36061;48.116;11.612;2023-06-22T05:32:51;9.23;;;5.17;;
50161;SDS011;36061;48.116;11.612;2023-06-22T05:35:18;10.63;;;6.00;;
50161;SDS011;36061;48.116;11.612;2023-06-22T05:37:45;8.77;;;4.80;;
50161;SDS011;36061;48.116;11.612;2023-06-22T05:40:13;8.47;;;4.97;;
50161;SDS011;36061;48.116;11.612;2023-06-22T05:42:40;10.20;;;6.10;;
50161;SDS011;36061;48.116;11.612;2023-06-22T05:45:09;13.93;;;5.80;;
50161;SDS011;36061;48.116;11.612;2023-06-22T05:47:36;9.83;;;5.87;;
50161;SDS011;36061;48.116;11.612;2023-06-22T05:50:04;8.37;;;5.17;;
50161;SDS011;36061;48.116;11.612;2023-06-22T05:52:34;11.57;;;5.67;;
50161;SDS011;36061;48.116;11.612;2023-06-22T05:55:01;10.33;;;5.20;;
50161;SDS011;36061;48.116;11.612;2023-06-22T05:57:29;12.50;;;5.67;;
50161;SDS011;36061;48.116;11.612;2023-06-22T05:59:56;12.33;;;5.80;;
50161;SDS011;36061;48.116;11.612;2023-06-22T06:02:25;8.67;;;5.03;;
50161;SDS011;36061;48.116;11.612;2023-06-22T06:04:52;8.80;;;5.10;;
50161;SDS011;36061;48.116;11.612;2023-06-22T06:07:19;12.10;;;4.97;;
50161;SDS011;36061;48.116;11.612;2023-06-22T06:09:47;11.30;;;5.10;;
50161;SDS011;36061;48.116;11.612;2023-06-22T06:12:14;14.57;;;5.67;;
50161;SDS011;36061;48.116;11.612;2023-06-22T06:14:42;9.30;;;5.13;;
50161;SDS011;36061;48.116;11.612;2023-06-22T06:17:09;10.07;;;5.53;;
50161;SDS011;36061;48.116;11.612;2023-06-22T06:19:37;8.57;;;5.00;;
50161;SDS011;36061;48.116;11.612;2023-06-22T06:22:05;9.73;;;5.33;;
50161;SDS011;36061;48.116;11.612;2023-06-22T06:24:33;10.27;;;5.17;;
50161;SDS011;36061;48.116;11.612;2023-06-22T06:27:00;11.73;;;5.13;;
50161;SDS011;36061;48.116;11.612;2023-06-22T06:29:30;12.17;;;5.40;;
50161;SDS011;36061;48.116;11.612;2023-06-22T06:31:57;9.33;;;5.97;;
50161;SDS011;36061;48.116;11.612;2023-06-22T06:34:24;14.40;;;5.77;;
50161;SDS011;36061;48.116;11.612;2023-06-22T06:36:53;7.37;;;5.20;;
50161;SDS011;36061;48.116;11.612;2023-06-22T06:39:20;11.90;;;5.70;;
50161;SDS011;36061;48.116;11.612;2023-06-22T06:41:47;11.50;;;5.47;;
50161;SDS011;36061;48.116;11.612;2023-06-22T06:44:15;10.50;;;5.87;;
50161;SDS011;36061;48.116;11.612;2023-06-22T06:46:42;11.40;;;5.70;;
50161;SDS011;36061;48.116;11.612;2023-06-22T06:49:09;13.93;;;6.10;;
50161;SDS011;36061;48.116;11.612;2023-06-22T06:51:37;13.43;;;5.63;;
50161;SDS011;36061;48.116;11.612;2023-06-22T06:54:05;7.67;;;5.27;;
50161;SDS011;36061;48.116;11.612;2023-06-22T06:56:32;10.63;;;5.60;;
50161;SDS011;36061;48.116;11.612;2023-06-22T06:59:00;9.83;;;5.90;;
50161;SDS011;36061;48.116;11.612;2023-06-22T07:01:27;9.50;;;5.60;;
50161;SDS011;36061;48.116;11.612;2023-06-22T07:03:59;11.70;;;5.60;;
50161;SDS011;36061;48.116;11.612;2023-06-22T07:06:26;12.60;;;5.40;;
50161;SDS011;36061;48.116;11.612;2023-06-22T07:08:57;10.83;;;5.93;;
50161;SDS011;36061;48.116;11.612;2023-06-22T07:11:26;12.40;;;5.90;;
50161;SDS011;36061;48.116;11.612;2023-06-22T07:13:53;12.60;;;6.23;;
50161;SDS011;36061;48.116;11.612;2023-06-22T07:16:20;12.50;;;5.87;;
50161;SDS011;36061;48.116;11.612;2023-06-22T07:18:48;8.27;;;5.10;;
50161;SDS011;36061;48.116;11.612;2023-06-22T07:21:15;8.10;;;5.17;;
50161;SDS011;36061;48.116;11.612;2023-06-22T07:23:42;11.70;;;5.47;;
50161;SDS011;36061;48.116;11.612;2023-06-22T07:26:10;11.70;;;5.60;;
50161;SDS011;36061;48.116;11.612;2023-06-22T07:28:39;10.50;;;5.57;;
50161;SDS011;36061;48.116;11.612;2023-06-22T07:31:06;10.60;;;5.30;;
50161;SDS011;36061;48.116;11.612;2023-06-22T07:33:33;8.23;;;5.63;;
50161;SDS011;36061;48.116;11.612;2023-06-22T07:36:01;12.07;;;5.57;;
50161;SDS011;36061;48.116;11.612;2023-06-22T07:38:33;9.13;;;5.17;;
50161;SDS011;36061;48.116;11.612;2023-06-22T07:41:00;8.10;;;5.60;;
50161;SDS011;36061;48.116;11.612;2023-06-22T07:43:30;10.40;;;5.17;;
50161;SDS011;36061;48.116;11.612;2023-06-22T07:45:59;10.10;;;5.43;;
50161;SDS011;36061;48.116;11.612;2023-06-22T07:48:27;11.20;;;5.13;;
50161;SDS011;36061;48.116;11.612;2023-06-22T07:50:54;11.87;;;6.00;;
50161;SDS011;36061;48.116;11.612;2023-06-22T07:53:22;8.53;;;5.37;;
50161;SDS011;36061;48.116;11.612;2023-06-22T07:55:49;9.90;;;5.30;;
50161;SDS011;36061;48.116;11.612;2023-06-22T07:58:17;12.70;;;6.17;;
50161;SDS011;36061;48.116;11.612;2023-06-22T08:00:46;10.40;;;5.90;;
50161;SDS011;36061;48.116;11.612;2023-06-22T08:03:16;11.80;;;6.13;;
50161;SDS011;36061;48.116;11.612;2023-06-22T08:05:43;11.53;;;6.07;;
50161;SDS011;36061;48.116;11.612;2023-06-22T08:08:10;13.87;;;5.73;;
50161;SDS011;36061;48.116;11.612;2023-06-22T08:10:40;12.53;;;5.40;;
50161;SDS011;36061;48.116;11.612;2023-06-22T08:13:07;11.83;;;6.37;;
50161;SDS011;36061;48.116;11.612;2023-06-22T08:15:34;12.53;;;5.70;;
50161;SDS011;36061;48.116;11.612;2023-06-22T08:18:02;11.03;;;5.90;;
50161;SDS011;36061;48.116;11.612;2023-06-22T08:20:30;9.73;;;5.87;;
50161;SDS011;36061;48.116;11.612;2023-06-22T08:22:58;10.07;;;6.17;;
50161;SDS011;36061;48.116;11.612;2023-06-22T08:25:30;10.83;;;5.23;;
50161;SDS011;36061;48.116;11.612;2023-06-22T08:27:58;12.43;;;5.40;;
50161;SDS011;36061;48.116;11.612;2023-06-22T08:30:25;12.37;;;5.93;;
50161;SDS011;36061;48.116;11.612;2023-06-22T08:32:53;7.30;;;5.60;;
50161;SDS011;36061;48.116;11.612;2023-06-22T08:35:21;16.60;;;6.17;;
50161;SDS011;36061;48.116;11.612;2023-06-22T08:37:50;13.27;;;5.67;;
50161;SDS011;36061;48.116;11.612;2023-06-22T08:40:19;13.00;;;5.37;;
50161;SDS011;36061;48.116;11.612;2023-06-22T08:42:48;11.93;;;5.60;;
50161;SDS011;36061;48.116;11.612;2023-06-22T08:45:15;14.03;;;5.87;;
50161;SDS011;36061;48.116;11.612;2023-06-22T08:47:43;9.17;;;5.27;;
50161;SDS011;36061;48.116;11.612;2023-06-22T08:50:10;9.97;;;5.23;;
50161;SDS011;36061;48.116;11.612;2023-06-22T08:52:38;17.00;;;5.93;;
50161;SDS011;36061;48.116;11.612;2023-06-22T08:55:09;11.60;;;5.70;;
50161;SDS011;36061;48.116;11.612;2023-06-22T08:57:36;7.23;;;5.23;;
50161;SDS011;36061;48.116;11.612;2023-06-22T09:00:05;12.57;;;5.37;;
50161;SDS011;36061;48.116;11.612;2023-06-22T09:02:41;12.30;;;5.77;;
50161;SDS011;36061;48.116;11.612;2023-06-22T09:05:08;11.43;;;5.87;;
50161;SDS011;36061;48.116;11.612;2023-06-22T09:07:36;10.93;;;6.03;;
50161;SDS011;36061;48.116;11.612;2023-06-22T09:10:03;9.20;;;4.70;;
50161;SDS011;36061;48.116;11.612;2023-06-22T09:12:33;9.83;;;5.63;;
50161;SDS011;36061;48.116;11.612;2023-06-22T09:15:03;10.20;;;6.20;;
50161;SDS011;36061;48.116;11.612;2023-06-22T09:17:32;10.00;;;5.13;;
50161;SDS011;36061;48.116;11.612;2023-06-22T09:20:01;8.97;;;5.33;;
50161;SDS011;36061;48.116;11.612;2023-06-22T09:22:31;12.43;;;5.00;;
50161;SDS011;36061;48.116;11.612;2023-06-22T09:24:58;9.43;;;5.17;;
50161;SDS011;36061;48.116;11.612;2023-06-22T09:27:26;12.57;;;5.57;;
50161;SDS011;36061;48.116;11.612;2023-06-22T09:29:54;14.67;;;6.30;;
50161;SDS011;36061;48.116;11.612;2023-06-22T09:32:23;11.40;;;5.00;;
50161;SDS011;36061;48.116;11.612;2023-06-22T09:34:51;10.50;;;5.53;;
50161;SDS011;36061;48.116;11.612;2023-06-22T09:37:18;8.10;;;5.20;;
50161;SDS011;36061;48.116;11.612;2023-06-22T09:39:45;11.40;;;6.00;;
50161;SDS011;36061;48.116;11.612;2023-06-22T09:42:12;12.53;;;4.80;;
50161;SDS011;36061;48.116;11.612;2023-06-22T09:44:40;13.10;;;5.57;;
50161;SDS011;36061;48.116;11.612;2023-06-22T09:47:08;9.73;;;5.83;;
50161;SDS011;36061;48.116;11.612;2023-06-22T09:49:36;11.90;;;5.87;;
50161;SDS011;36061;48.116;11.612;2023-06-22T09:52:03;9.87;;;5.50;;
50161;SDS011;36061;48.116;11.612;2023-06-22T09:54:31;9.63;;;4.70;;
50161;SDS011;36061;48.116;11.612;2023-06-22T09:56:58;14.33;;;5.57;;
50161;SDS011;36061;48.116;11.612;2023-06-22T09:59:25;15.03;;;5.93;;
50161;SDS011;36061;48.116;11.612;2023-06-22T10:01:52;6.87;;;4.50;;
50161;SDS011;36061;48.116;11.612;2023-06-22T10:04:21;11.60;;;5.70;;
50161;SDS011;36061;48.116;11.612;2023-06-22T10:06:49;9.67;;;5.90;;
50161;SDS011;36061;48.116;11.612;2023-06-22T10:09:17;9.50;;;5.20;;
50161;SDS011;36061;48.116;11.612;2023-06-22T10:11:44;10.05;;;5.82;;
50161;SDS011;36061;48.116;11.612;2023-06-22T10:14:11;12.27;;;5.90;;
50161;SDS011;36061;48.116;11.612;2023-06-22T10:16:38;10.40;;;4.83;;
50161;SDS011;36061;48.116;11.612;2023-06-22T10:19:06;9.30;;;5.73;;
50161;SDS011;36061;48.116;11.612;2023-06-22T10:21:35;12.07;;;5.47;;
50161;SDS011;36061;48.116;11.612;2023-06-22T10:24:02;12.30;;;5.07;;
50161;SDS011;36061;48.116;11.612;2023-06-22T10:26:32;13.73;;;5.30;;
50161;SDS011;36061;48.116;11.612;2023-06-22T10:28:59;9.52;;;5.45;;
50161;SDS011;36061;48.116;11.612;2023-06-22T10:31:26;12.88;;;5.53;;
50161;SDS011;36061;48.116;11.612;2023-06-22T10:33:53;8.68;;;4.90;;
50161;SDS011;36061;48.116;11.612;2023-06-22T10:36:21;9.75;;;5.13;;
50161;SDS011;36061;48.116;11.612;2023-06-22T10:38:50;13.85;;;5.18;;
50161;SDS011;36061;48.116;11.612;2023-06-22T10:41:18;8.95;;;4.82;;
50161;SDS011;36061;48.116;11.612;2023-06-22T10:43:45;8.77;;;5.28;;
50161;SDS011;36061;48.116;11.612;2023-06-22T10:46:13;11.50;;;5.32;;
50161;SDS011;36061;48.116;11.612;2023-06-22T10:48:40;12.43;;;5.28;;
50161;SDS011;36061;48.116;11.612;2023-06-22T10:51:07;18.15;;;5.88;;
50161;SDS011;36061;48.116;11.612;2023-06-22T10:53:34;12.27;;;4.47;;
50161;SDS011;36061;48.116;11.612;2023-06-22T10:56:03;11.68;;;5.40;;
50161;SDS011;36061;48.116;11.612;2023-06-22T10:58:30;8.00;;;5.25;;
50161;SDS011;36061;48.116;11.612;2023-06-22T11:00:57;7.95;;;5.03;;
50161;SDS011;36061;48.116;11.612;2023-06-22T11:03:25;13.57;;;4.72;;
50161;SDS011;36061;48.116;11.612;2023-06-22T11:05:52;12.85;;;5.38;;
50161;SDS011;36061;48.116;11.612;2023-06-22T11:08:19;9.70;;;4.72;;
50161;SDS011;36061;48.116;11.612;2023-06-22T11:10:46;9.77;;;5.28;;
50161;SDS011;36061;48.116;11.612;2023-06-22T11:13:15;11.00;;;5.60;;
50161;SDS011;36061;48.116;11.612;2023-06-22T11:15:42;10.32;;;4.50;;
50161;SDS011;36061;48.116;11.612;2023-06-22T11:18:10;13.20;;;4.75;;
50161;SDS011;36061;48.116;11.612;2023-06-22T11:20:37;11.23;;;6.50;;
50161;SDS011;36061;48.116;11.612;2023-06-22T11:23:06;10.20;;;5.47;;
50161;SDS011;36061;48.116;11.612;2023-06-22T11:25:33;8.40;;;5.32;;
50161;SDS011;36061;48.116;11.612;2023-06-22T11:28:01;13.77;;;5.78;;
50161;SDS011;36061;48.116;11.612;2023-06-22T11:30:30;10.55;;;5.25;;
50161;SDS011;36061;48.116;11.612;2023-06-22T11:32:58;7.38;;;5.40;;
50161;SDS011;36061;48.116;11.612;2023-06-22T11:35:26;10.40;;;5.70;;
50161;SDS011;36061;48.116;11.612;2023-06-22T11:37:53;13.27;;;5.93;;
50161;SDS011;36061;48.116;11.612;2023-06-22T11:40:21;9.70;;;5.03;;
50161;SDS011;36061;48.116;11.612;2023-06-22T11:42:48;14.77;;;5.82;;
50161;SDS011;36061;48.116;11.612;2023-06-22T11:45:15;9.02;;;5.57;;
50161;SDS011;36061;48.116;11.612;2023-06-22T11:47:45;13.70;;;5.32;;
50161;SDS011;36061;48.116;11.612;2023-06-22T11:50:12;9.00;;;5.10;;
50161;SDS011;36061;48.116;11.612;2023-06-22T11:52:40;9.45;;;5.55;;
50161;SDS011;36061;48.116;11.612;2023-06-22T11:55:07;22.23;;;5.32;;
50161;SDS011;36061;48.116;11.612;2023-06-22T11:57:35;10.75;;;5.00;;
50161;SDS011;36061;48.116;11.612;2023-06-22T12:00:04;10.98;;;5.50;;
50161;SDS011;36061;48.116;11.612;2023-06-22T12:02:41;14.30;;;5.57;;
50161;SDS011;36061;48.116;11.612;2023-06-22T12:05:09;14.52;;;7.10;;
50161;SDS011;36061;48.116;11.612;2023-06-22T12:07:37;10.95;;;5.70;;
50161;SDS011;36061;48.116;11.612;2023-06-22T12:10:05;10.63;;;5.20;;
50161;SDS011;36061;48.116;11.612;2023-06-22T12:12:33;10.77;;;5.85;;
50161;SDS011;36061;48.116;11.612;2023-06-22T12:15:00;11.63;;;5.53;;
50161;SDS011;36061;48.116;11.612;2023-06-22T12:17:29;11.30;;;5.38;;
50161;SDS011;36061;48.116;11.612;2023-06-22T12:19:56;10.68;;;5.63;;
50161;SDS011;36061;48.116;11.612;2023-06-22T12:22:26;12.60;;;5.63;;
50161;SDS011;36061;48.116;11.612;2023-06-22T12:24:53;12.00;;;6.22;;
50161;SDS011;36061;48.116;11.612;2023-06-22T12:27:20;10.85;;;5.82;;
50161;SDS011;36061;48.116;11.612;2023-06-22T12:29:48;11.88;;;5.72;;
50161;SDS011;36061;48.116;11.612;2023-06-22T12:32:15;13.05;;;5.55;;
50161;SDS011;36061;48.116;11.612;2023-06-22T12:34:42;11.15;;;5.28;;
50161;SDS011;36061;48.116;11.612;2023-06-22T12:37:10;12.55;;;5.55;;
50161;SDS011;36061;48.116;11.612;2023-06-22T12:39:39;10.10;;;5.43;;
50161;SDS011;36061;48.116;11.612;2023-06-22T12:42:07;7.47;;;5.35;;
50161;SDS011;36061;48.116;11.612;2023-06-22T12:44:34;7.75;;;5.15;;
50161;SDS011;36061;48.116;11.612;2023-06-22T12:47:02;13.35;;;5.63;;
50161;SDS011;36061;48.116;11.612;2023-06-22T12:49:29;10.20;;;5.63;;
50161;SDS011;36061;48.116;11.612;2023-06-22T12:51:56;12.57;;;5.57;;
50161;SDS011;36061;48.116;11.612;2023-06-22T12:54:23;10.50;;;5.45;;
50161;SDS011;36061;48.116;11.612;2023-06-22T12:56:52;13.30;;;5.20;;
50161;SDS011;36061;48.116;11.612;2023-06-22T12:59:19;12.23;;;4.90;;
50161;SDS011;36061;48.116;11.612;2023-06-22T13:01:46;10.02;;;5.72;;
50161;SDS011;36061;48.116;11.612;2023-06-22T13:04:14;12.85;;;5.20;;
50161;SDS011;36061;48.116;11.612;2023-06-22T13:06:41;11.93;;;5.10;;
50161;SDS011;36061;48.116;11.612;2023-06-22T13:09:09;12.57;;;5.72;;
50161;SDS011;36061;48.116;11.612;2023-06-22T13:11:37;12.27;;;5.00;;
50161;SDS011;36061;48.116;11.612;2023-06-22T13:14:05;9.90;;;4.40;;
50161;SDS011;36061;48.116;11.612;2023-06-22T13:16:33;9.23;;;4.82;;
50161;SDS011;36061;48.116;11.612;2023-06-22T13:19:00;13.95;;;5.80;;
50161;SDS011;36061;48.116;11.612;2023-06-22T13:21:27;13.55;;;5.60;;
50161;SDS011;36061;48.116;11.612;2023-06-22T13:23:54;11.68;;;5.70;;
50161;SDS011;36061;48.116;11.612;2023-06-22T13:26:21;11.48;;;5.50;;
50161;SDS011;36061;48.116;11.612;2023-06-22T13:28:49;7.22;;;4.65;;
50161;SDS011;36061;48.116;11.612;2023-06-22T13:31:17;10.07;;;5.30;;
50161;SDS011;36061;48.116;11.612;2023-06-22T13:33:44;11.60;;;4.78;;
50161;SDS011;36061;48.116;11.612;2023-06-22T13:36:13;9.32;;;4.72;;
50161;SDS011;36061;48.116;11.612;2023-06-22T13:38:40;10.95;;;4.90;;
50161;SDS011;36061;48.116;11.612;2023-06-22T13:41:07;11.07;;;4.97;;
50161;SDS011;36061;48.116;11.612;2023-06-22T13:43:35;13.60;;;4.45;;
50161;SDS011;36061;48.116;11.612;2023-06-22T13:46:02;9.50;;;4.95;;
50161;SDS011;36061;48.116;11.612;2023-06-22T13:48:30;10.98;;;5.30;;
50161;SDS011;36061;48.116;11.612;2023-06-22T13:50:57;14.23;;;4.82;;
50161;SDS011;36061;48.116;11.612;2023-06-22T13:53:25;12.48;;;4.88;;
50161;SDS011;36061;48.116;11.612;2023-06-22T13:55:52;9.80;;;5.28;;
50161;SDS011;36061;48.116;11.612;2023-06-22T13:58:19;11.23;;;4.72;;
50161;SDS011;36061;48.116;11.612;2023-06-22T14:00:46;8.65;;;5.05;;
50161;SDS011;36061;48.116;11.612;2023-06-22T14:03:14;9.50;;;5.00;;
50161;SDS011;36061;48.116;11.612;2023-06-22T14:05:43;9.40;;;4.80;;
50161;SDS011;36061;48.116;11.612;2023-06-22T14:08:11;13.90;;;5.22;;
50161;SDS011;36061;48.116;11.612;2023-06-22T14:10:38;11.52;;;4.50;;
50161;SDS011;36061;48.116;11.612;2023-06-22T14:13:05;13.93;;;5.35;;
50161;SDS011;36061;48.116;11.612;2023-06-22T14:15:33;14.25;;;5.65;;
50161;SDS011;36061;48.116;11.612;2023-06-22T14:18:00;14.15;;;4.75;;
50161;SDS011;36061;48.116;11.612;2023-06-22T14:20:27;11.82;;;6.45;;
50161;SDS011;36061;48.116;11.612;2023-06-22T14:22:55;13.98;;;6.60;;
50161;SDS011;36061;48.116;11.612;2023-06-22T14:25:23;9.45;;;4.93;;
50161;SDS011;36061;48.116;11.612;2023-06-22T14:27:50;11.07;;;4.60;;
50161;SDS011;36061;48.116;11.612;2023-06-22T14:30:17;9.20;;;5.03;;
50161;SDS011;36061;48.116;11.612;2023-06-22T14:32:44;10.43;;;4.70;;